Time;durP1;ratioP1;P1;durP2;ratioP2;P2;SDS_P1;SDS_P2;PMS_P1;PMS_P2;Temp;Humidity;BMP_temperature;BMP_pressure;BME280_temperature;BME280_humidity;BME280_pressure;Samples;Min_cycle;Max_cycle;Signal;HPM_P1;HPM_P2
2023/04/18 00:03:14;;;;;;;2.38;1.23;;;;;;;;;;12980792;19;20396;-64
2023/04/18 00:07:35;;;;;;;2.08;1.10;;;;;;;;;;12980957;19;20043;-64
2023/04/18 00:11:53;;;;;;;2.00;1.67;;;;;;;;;;12981319;19;20022;-64
2023/04/18 00:16:12;;;;;;;;;;;;;;;;;;12981206;19;20021;-64
2023/04/18 00:20:29;;;;;;;3.15;1.48;;;;;;;;;;12981131;19;19915;-64
2023/04/18 00:24:48;;;;;;;1.90;1.45;;;;;;;;;;12980520;19;20021;-64
2023/04/18 00:29:06;;;;;;;2.17;1.83;;;;;;;;;;12983757;19;20397;-64
2023/04/18 00:33:24;;;;;;;1.95;1.45;;;;;;;;;;12993855;19;20501;-64
2023/04/18 00:37:42;;;;;;;2.10;1.50;;;;;;;;;;12992585;19;20006;-64
2023/04/18 00:42:01;;;;;;;2.90;1.60;;;;;;;;;;12992554;19;20249;-64
2023/04/18 00:46:19;;;;;;;2.55;1.50;;;;;;;;;;12988778;19;20396;-64
2023/04/18 00:50:37;;;;;;;2.20;1.70;;;;;;;;;;12992179;19;20128;-64
2023/04/18 00:54:55;;;;;;;2.58;1.65;;;;;;;;;;12990420;19;20763;-64
2023/04/18 00:59:13;;;;;;;2.63;1.75;;;;;;;;;;12990826;19;20442;-64
2023/04/18 01:03:31;;;;;;;2.60;1.90;;;;;;;;;;12993944;19;20010;-64
2023/04/18 01:07:50;;;;;;;2.92;2.05;;;;;;;;;;12989632;19;20014;-64
2023/04/18 01:12:08;;;;;;;2.92;1.70;;;;;;;;;;12989020;19;20031;-64
2023/04/18 01:16:31;;;;;;;3.35;1.80;;;;;;;;;;12989560;19;20027;-64
2023/04/18 01:20:51;;;;;;;3.38;2.05;;;;;;;;;;12988283;19;20022;-64
2023/04/18 01:25:09;;;;;;;2.22;1.60;;;;;;;;;;12987638;19;20031;-64
2023/04/18 01:29:28;;;;;;;2.95;1.90;;;;;;;;;;12988778;19;20473;-64
2023/04/18 01:33:45;;;;;;;2.97;2.08;;;;;;;;;;12987969;19;20014;-64
2023/04/18 01:38:04;;;;;;;2.28;1.70;;;;;;;;;;12987413;19;20323;-64
2023/04/18 01:42:22;;;;;;;2.50;1.73;;;;;;;;;;12987408;19;20656;-64
2023/04/18 01:46:39;;;;;;;3.65;1.98;;;;;;;;;;12986790;19;20007;-64
2023/04/18 01:50:57;;;;;;;1.90;1.70;;;;;;;;;;12987936;19;20415;-64
2023/04/18 01:55:15;;;;;;;1.85;1.30;;;;;;;;;;12986948;19;20019;-64
2023/04/18 01:59:32;;;;;;;3.10;1.95;;;;;;;;;;12987608;19;21004;-64
2023/04/18 02:03:50;;;;;;;2.83;2.30;;;;;;;;;;12986911;19;20018;-64
2023/04/18 02:08:10;;;;;;;3.08;2.25;;;;;;;;;;12985214;19;20036;-65
2023/04/18 02:12:28;;;;;;;4.15;2.65;;;;;;;;;;12985991;19;20031;-64
2023/04/18 02:16:45;;;;;;;4.55;2.75;;;;;;;;;;12985905;19;20605;-64
2023/04/18 02:21:03;;;;;;;3.45;2.08;;;;;;;;;;12983986;19;20381;-64
2023/04/18 02:25:22;;;;;;;7.55;3.00;;;;;;;;;;12985046;19;20014;-64
2023/04/18 02:29:41;;;;;;;3.97;3.28;;;;;;;;;;12985309;19;20023;-64
2023/04/18 02:33:58;;;;;;;4.55;2.90;;;;;;;;;;12984919;19;20006;-64
2023/04/18 02:38:16;;;;;;;5.03;3.55;;;;;;;;;;12984448;19;20018;-64
2023/04/18 02:42:34;;;;;;;4.45;3.05;;;;;;;;;;12985053;19;20485;-64
2023/04/18 02:46:51;;;;;;;4.15;2.70;;;;;;;;;;12984216;19;20010;-64
2023/04/18 02:51:09;;;;;;;6.43;3.70;;;;;;;;;;12982113;19;20018;-64
2023/04/18 02:55:27;;;;;;;4.32;2.97;;;;;;;;;;12983672;19;20027;-64
2023/04/18 02:59:45;;;;;;;4.05;3.15;;;;;;;;;;12983423;19;20010;-64
2023/04/18 03:04:03;;;;;;;5.30;3.00;;;;;;;;;;12982596;19;20007;-65
2023/04/18 03:08:20;;;;;;;4.30;2.60;;;;;;;;;;12982942;19;20030;-64
2023/04/18 03:12:38;;;;;;;6.22;4.05;;;;;;;;;;12982970;19;20031;-64
2023/04/18 03:16:55;;;;;;;6.78;3.78;;;;;;;;;;12982660;19;20011;-64
2023/04/18 03:21:13;;;;;;;6.95;3.25;;;;;;;;;;12981006;19;20474;-64
2023/04/18 03:25:31;;;;;;;7.53;4.93;;;;;;;;;;12982506;19;20461;-64
2023/04/18 03:29:49;;;;;;;7.22;4.75;;;;;;;;;;12982863;19;20006;-64
2023/04/18 03:34:06;;;;;;;5.35;3.40;;;;;;;;;;12981812;19;20028;-64
2023/04/18 03:38:24;;;;;;;9.23;4.38;;;;;;;;;;12982313;19;20006;-64
2023/04/18 03:42:41;;;;;;;5.57;4.22;;;;;;;;;;12981832;19;20010;-64
2023/04/18 03:46:59;;;;;;;5.60;4.10;;;;;;;;;;12981445;19;20019;-64
2023/04/18 03:51:17;;;;;;;8.30;4.40;;;;;;;;;;12981187;19;20018;-64
2023/04/18 03:55:35;;;;;;;8.40;4.20;;;;;;;;;;12978674;19;20018;-64
2023/04/18 03:59:52;;;;;;;6.38;3.78;;;;;;;;;;12979969;19;20362;-64
2023/04/18 04:04:12;;;;;;;;;;;;;;;;;;12987083;19;20352;-64
2023/04/18 04:08:30;;;;;;;9.77;3.85;;;;;;;;;;12992580;19;19918;-64
2023/04/18 04:12:48;;;;;;;4.60;3.47;;;;;;;;;;12993384;19;20015;-64
2023/04/18 04:17:06;;;;;;;8.07;5.13;;;;;;;;;;12992677;19;20041;-66
2023/04/18 04:21:23;;;;;;;7.95;3.63;;;;;;;;;;12992117;19;20011;-64
2023/04/18 04:25:41;;;;;;;9.95;3.65;;;;;;;;;;12993068;19;20015;-64
2023/04/18 04:29:59;;;;;;;;;;;;;;;;;;12993180;19;20019;-64
2023/04/18 04:34:17;;;;;;;6.88;4.28;;;;;;;;;;12991621;19;19926;-64
2023/04/18 04:38:37;;;;;;;6.93;4.80;;;;;;;;;;12991991;19;20452;-64
2023/04/18 04:42:55;;;;;;;6.30;4.20;;;;;;;;;;12991314;19;20391;-65
2023/04/18 04:47:12;;;;;;;9.00;4.22;;;;;;;;;;12990465;19;20025;-64
2023/04/18 04:51:30;;;;;;;8.50;5.40;;;;;;;;;;12990841;19;20032;-64
2023/04/18 04:55:48;;;;;;;;;;;;;;;;;;12989179;19;20019;-64
2023/04/18 05:00:07;;;;;;;6.60;4.95;;;;;;;;;;12989567;19;19918;-64
2023/04/18 05:04:25;;;;;;;8.65;4.97;;;;;;;;;;12989658;19;20014;-64
2023/04/18 05:08:42;;;;;;;10.85;4.90;;;;;;;;;;12989132;19;20017;-64
2023/04/18 05:13:00;;;;;;;6.35;4.18;;;;;;;;;;12989992;19;20014;-64
2023/04/18 05:17:18;;;;;;;7.40;4.65;;;;;;;;;;12988719;19;20503;-64
2023/04/18 05:21:35;;;;;;;9.75;4.25;;;;;;;;;;12988674;19;20014;-64
2023/04/18 05:25:53;;;;;;;13.80;6.55;;;;;;;;;;12989443;19;20032;-64
2023/04/18 05:30:11;;;;;;;11.23;5.05;;;;;;;;;;12988569;19;20025;-64
2023/04/18 05:34:29;;;;;;;10.07;5.15;;;;;;;;;;12988951;19;20616;-64
2023/04/18 05:38:47;;;;;;;5.65;4.05;;;;;;;;;;12989243;19;20031;-64
2023/04/18 05:43:05;;;;;;;8.35;5.15;;;;;;;;;;12988550;19;20022;-63
2023/04/18 05:47:25;;;;;;;6.40;4.20;;;;;;;;;;12988144;19;20015;-64
2023/04/18 05:51:43;;;;;;;8.30;4.15;;;;;;;;;;12988420;19;20006;-64
2023/04/18 05:56:01;;;;;;;8.80;5.30;;;;;;;;;;12987414;19;20492;-65
2023/04/18 06:00:19;;;;;;;7.67;4.43;;;;;;;;;;12985878;19;20022;-64
2023/04/18 06:04:36;;;;;;;7.93;5.07;;;;;;;;;;12988592;19;20220;-64
2023/04/18 06:08:54;;;;;;;;;;;;;;;;;;12988546;19;20610;-64
2023/04/18 06:13:12;;;;;;;7.40;4.80;;;;;;;;;;12986823;19;19923;-64
2023/04/18 06:17:29;;;;;;;8.25;4.80;;;;;;;;;;12987286;19;20412;-64
2023/04/18 06:21:48;;;;;;;6.38;3.45;;;;;;;;;;12972694;19;20451;-64
2023/04/18 06:26:06;;;;;;;6.32;4.13;;;;;;;;;;12981649;19;20007;-65
2023/04/18 06:30:23;;;;;;;9.10;4.43;;;;;;;;;;12986779;19;20011;-65
2023/04/18 06:34:43;;;;;;;7.18;4.68;;;;;;;;;;12986844;19;20011;-65
2023/04/18 06:39:01;;;;;;;10.13;4.55;;;;;;;;;;12986850;19;20043;-65
2023/04/18 06:43:20;;;;;;;12.38;5.32;;;;;;;;;;12986413;19;20028;-65
2023/04/18 06:47:39;;;;;;;8.38;5.40;;;;;;;;;;12985608;19;20028;-65
2023/04/18 06:51:57;;;;;;;10.25;4.93;;;;;;;;;;12985384;19;20554;-66
2023/04/18 06:56:15;;;;;;;15.80;6.05;;;;;;;;;;12972927;19;20494;-68
2023/04/18 07:00:33;;;;;;;7.82;5.45;;;;;;;;;;12982001;19;20019;-68
2023/04/18 07:04:50;;;;;;;6.03;4.45;;;;;;;;;;12977399;19;20017;-68
2023/04/18 07:09:08;;;;;;;5.65;3.65;;;;;;;;;;12981312;19;20478;-68
2023/04/18 07:13:25;;;;;;;8.73;5.13;;;;;;;;;;12982647;19;20376;-68
2023/04/18 07:17:43;;;;;;;10.15;5.22;;;;;;;;;;12983613;19;20006;-69
2023/04/18 07:22:01;;;;;;;6.60;4.53;;;;;;;;;;12981274;19;20045;-68
2023/04/18 07:26:19;;;;;;;257.67;234.63;;;;;;;;;;12970708;19;20484;-68
2023/04/18 07:30:36;;;;;;;9.63;4.40;;;;;;;;;;12966935;19;20113;-68
2023/04/18 07:34:56;;;;;;;6.88;3.65;;;;;;;;;;12978230;19;20031;-68
2023/04/18 07:39:13;;;;;;;12.70;5.90;;;;;;;;;;12976341;19;20027;-69
2023/04/18 07:43:31;;;;;;;;;;;;;;;;;;12978624;19;20027;-68
2023/04/18 07:47:49;;;;;;;11.43;5.68;;;;;;;;;;12979910;19;19918;-68
2023/04/18 07:52:07;;;;;;;8.02;4.63;;;;;;;;;;12975435;19;20010;-68
2023/04/18 07:56:26;;;;;;;63.03;37.08;;;;;;;;;;12976029;19;20007;-68
2023/04/18 08:00:44;;;;;;;10.52;7.97;;;;;;;;;;12974739;19;20026;-69
2023/04/18 08:05:01;;;;;;;10.95;5.53;;;;;;;;;;12976079;19;20470;-69
2023/04/18 08:09:20;;;;;;;5.20;3.50;;;;;;;;;;12974768;19;20031;-69
2023/04/18 08:13:38;;;;;;;9.45;6.25;;;;;;;;;;12975020;19;20090;-69
2023/04/18 08:17:56;;;;;;;6.13;3.20;;;;;;;;;;12975396;19;20477;-69
2023/04/18 08:22:13;;;;;;;6.87;3.30;;;;;;;;;;12971539;19;20452;-69
2023/04/18 08:26:30;;;;;;;7.38;3.53;;;;;;;;;;12973667;19;20399;-69
2023/04/18 08:30:49;;;;;;;6.20;3.97;;;;;;;;;;12974555;19;20010;-69
2023/04/18 08:35:06;;;;;;;;;;;;;;;;;;12972512;19;20021;-70
2023/04/18 08:39:24;;;;;;;8.15;4.72;;;;;;;;;;12972825;19;19923;-70
2023/04/18 08:43:47;;;;;;;8.48;2.65;;;;;;;;;;12974097;19;20031;-68
2023/04/18 08:48:06;;;;;;;4.95;2.58;;;;;;;;;;12970814;19;20015;-69
2023/04/18 08:52:27;;;;;;;4.65;3.15;;;;;;;;;;12976154;19;20086;-69
2023/04/18 08:56:45;;;;;;;6.30;4.18;;;;;;;;;;12975866;19;20014;-69
2023/04/18 09:01:02;;;;;;;9.32;3.92;;;;;;;;;;12975013;19;20019;-69
2023/04/18 09:05:21;;;;;;;6.53;3.85;;;;;;;;;;12983348;19;20022;-70
2023/04/18 09:09:49;;;;;;;6.75;3.85;;;;;;;;;;12984534;19;20019;-70
2023/04/18 09:14:06;;;;;;;6.05;3.13;;;;;;;;;;12984850;19;20027;-70
2023/04/18 09:18:24;;;;;;;4.47;2.60;;;;;;;;;;12985286;19;20018;-71
2023/04/18 09:22:53;;;;;;;4.38;2.10;;;;;;;;;;12983967;19;20014;-70
2023/04/18 09:27:14;;;;;;;6.05;2.65;;;;;;;;;;12976817;19;20079;-71
2023/04/18 09:31:32;;;;;;;4.55;3.30;;;;;;;;;;12975441;19;20007;-70
2023/04/18 09:35:50;;;;;;;9.63;4.85;;;;;;;;;;12981960;19;20087;-71
2023/04/18 09:40:18;;;;;;;7.28;4.68;;;;;;;;;;12982153;19;20506;-70
2023/04/18 09:44:37;;;;;;;;;;;;;;;;;;12984271;19;20585;-71
2023/04/18 09:48:55;;;;;;;3.85;2.65;;;;;;;;;;12981999;19;19919;-70
2023/04/18 09:53:17;;;;;;;2.95;2.15;;;;;;;;;;12981521;19;20022;-70
2023/04/18 09:57:46;;;;;;;8.73;2.42;;;;;;;;;;12980765;19;20490;-71
2023/04/18 10:02:06;;;;;;;8.18;3.15;;;;;;;;;;12979878;19;20014;-70
2023/04/18 10:06:27;;;;;;;2.63;1.95;;;;;;;;;;12982825;19;20029;-71
2023/04/18 10:10:45;;;;;;;6.30;3.60;;;;;;;;;;12980388;19;20027;-70
2023/04/18 10:15:05;;;;;;;4.07;2.88;;;;;;;;;;12981146;19;20014;-70
2023/04/18 10:19:25;;;;;;;3.50;2.03;;;;;;;;;;12981427;19;20402;-69
2023/04/18 10:23:44;;;;;;;1.23;1.02;;;;;;;;;;12979476;19;20381;-69
2023/04/18 10:28:06;;;;;;;3.17;1.88;;;;;;;;;;12979114;19;20006;-69
2023/04/18 10:32:24;;;;;;;5.70;3.08;;;;;;;;;;12979293;19;20046;-69
2023/04/18 10:37:05;;;;;;;2.85;1.88;;;;;;;;;;12980506;19;20469;-69
2023/04/18 10:41:33;;;;;;;4.38;2.95;;;;;;;;;;12980003;19;20065;-69
2023/04/18 10:46:09;;;;;;;4.45;2.92;;;;;;;;;;12981561;19;20021;-68
2023/04/18 10:51:20;;;;;;;4.13;2.72;;;;;;;;;;12984189;19;20014;-68
2023/04/18 10:55:43;;;;;;;4.25;2.75;;;;;;;;;;12982878;19;20021;-68
2023/04/18 11:00:07;;;;;;;4.40;2.70;;;;;;;;;;12980977;19;20023;-68
2023/04/18 11:04:25;;;;;;;5.05;2.42;;;;;;;;;;12983974;19;20470;-68
2023/04/18 11:08:43;;;;;;;4.07;2.28;;;;;;;;;;12982678;19;20010;-68
2023/04/18 11:13:05;;;;;;;4.25;2.20;;;;;;;;;;12981989;19;20015;-69
2023/04/18 11:17:25;;;;;;;3.42;1.83;;;;;;;;;;12981576;19;20029;-68
2023/04/18 11:21:43;;;;;;;2.63;2.03;;;;;;;;;;12982804;19;20018;-68
2023/04/18 11:26:02;;;;;;;3.42;1.88;;;;;;;;;;12982349;19;20469;-68
2023/04/18 11:30:20;;;;;;;3.53;1.75;;;;;;;;;;12982171;19;20014;-69
2023/04/18 11:34:38;;;;;;;2.50;1.55;;;;;;;;;;12982352;19;20015;-68
2023/04/18 11:38:55;;;;;;;2.95;1.50;;;;;;;;;;12981407;19;20022;-68
2023/04/18 11:43:20;;;;;;;2.63;1.42;;;;;;;;;;12981138;19;20462;-68
2023/04/18 11:47:38;;;;;;;6.75;2.10;;;;;;;;;;12981305;19;20014;-68
2023/04/18 11:52:00;;;;;;;4.95;2.08;;;;;;;;;;12980611;19;20014;-68
2023/04/18 11:56:18;;;;;;;3.92;2.08;;;;;;;;;;12980310;19;20037;-69
2023/04/18 12:00:38;;;;;;;1.85;1.10;;;;;;;;;;12980336;19;20011;-67
2023/04/18 12:04:58;;;;;;;2.20;1.42;;;;;;;;;;12981044;19;20022;-69
2023/04/18 12:09:18;;;;;;;3.35;1.27;;;;;;;;;;12979641;19;20015;-68
2023/04/18 12:13:35;;;;;;;2.88;1.80;;;;;;;;;;12978676;19;20006;-69
2023/04/18 12:17:59;;;;;;;1.52;1.17;;;;;;;;;;12979600;19;20015;-68
2023/04/18 12:22:17;;;;;;;6.20;1.85;;;;;;;;;;12978883;19;20017;-69
2023/04/18 12:26:44;;;;;;;31.65;12.60;;;;;;;;;;12987173;19;20039;-68
2023/04/18 12:31:06;;;;;;;2.55;1.33;;;;;;;;;;12991567;19;20022;-70
2023/04/18 12:35:25;;;;;;;2.08;1.40;;;;;;;;;;12992169;19;20475;-68
2023/04/18 12:39:43;;;;;;;3.20;1.05;;;;;;;;;;12991724;19;20025;-69
2023/04/18 12:44:01;;;;;;;2.13;1.50;;;;;;;;;;12990919;19;20034;-68
2023/04/18 12:48:19;;;;;;;1.70;1.38;;;;;;;;;;12991516;19;20014;-68
2023/04/18 12:52:39;;;;;;;3.67;1.27;;;;;;;;;;12991755;19;20011;-67
2023/04/18 12:56:57;;;;;;;3.42;1.55;;;;;;;;;;12992089;19;20034;-69
2023/04/18 13:01:15;;;;;;;4.22;2.22;;;;;;;;;;12990009;19;20013;-68
2023/04/18 13:05:33;;;;;;;1.95;1.35;;;;;;;;;;12990592;19;20010;-69
2023/04/18 13:09:51;;;;;;;;;;;;;;;;;;12990351;19;20038;-68
2023/04/18 13:14:08;;;;;;;1.73;1.15;;;;;;;;;;12989034;19;20330;-69
2023/04/18 13:18:26;;;;;;;4.00;1.50;;;;;;;;;;12989531;19;20489;-69
2023/04/18 13:22:44;;;;;;;;;;;;;;;;;;12988815;19;20567;-69
2023/04/18 13:27:08;;;;;;;3.22;2.08;;;;;;;;;;12988193;19;19923;-69
2023/04/18 13:31:27;;;;;;;1.77;1.10;;;;;;;;;;12988791;19;20452;-69
2023/04/18 13:35:45;;;;;;;2.42;1.50;;;;;;;;;;12988082;19;20015;-69
2023/04/18 13:40:05;;;;;;;2.33;1.45;;;;;;;;;;12988584;19;20021;-70
2023/04/18 13:44:23;;;;;;;2.22;1.38;;;;;;;;;;12989128;19;20014;-69
2023/04/18 13:48:41;;;;;;;4.95;2.15;;;;;;;;;;12988214;19;20780;-69
2023/04/18 13:52:59;;;;;;;1.77;1.17;;;;;;;;;;12987823;19;20021;-71
2023/04/18 13:57:17;;;;;;;2.92;2.17;;;;;;;;;;12987521;19;20010;-69
2023/04/18 14:01:34;;;;;;;;;;;;;;;;;;12987614;19;20018;-69
2023/04/18 14:05:52;;;;;;;8.88;2.72;;;;;;;;;;12985918;19;19918;-70
2023/04/18 14:10:10;;;;;;;5.70;1.98;;;;;;;;;;12985617;19;20039;-69
2023/04/18 14:14:28;;;;;;;;;;;;;;;;;;12987244;19;20871;-69
2023/04/18 14:18:46;;;;;;;9.07;3.92;;;;;;;;;;12986593;19;19937;-69
2023/04/18 14:23:04;;;;;;;;;;;;;;;;;;12985519;19;20010;-69
2023/04/18 14:27:21;;;;;;;5.13;2.45;;;;;;;;;;12986473;19;19942;-70
2023/04/18 14:31:39;;;;;;;9.48;4.57;;;;;;;;;;12985959;19;20458;-69
2023/04/18 14:35:57;;;;;;;;;;;;;;;;;;12986050;19;20348;-69
2023/04/18 14:40:15;;;;;;;5.25;3.38;;;;;;;;;;12984647;19;20389;-69
2023/04/18 14:44:33;;;;;;;4.25;2.70;;;;;;;;;;12985860;19;20021;-69
2023/04/18 14:48:50;;;;;;;;;;;;;;;;;;12981381;19;20328;-71
2023/04/18 14:53:09;;;;;;;4.53;2.45;;;;;;;;;;12983725;19;19935;-69
2023/04/18 14:57:27;;;;;;;3.30;2.15;;;;;;;;;;12984448;19;20019;-71
2023/04/18 15:01:48;;;;;;;13.35;6.38;;;;;;;;;;12984745;19;20010;-69
2023/04/18 15:06:06;;;;;;;3.95;2.60;;;;;;;;;;12983008;19;20040;-69
2023/04/18 15:10:24;;;;;;;26.52;11.75;;;;;;;;;;12982585;19;20026;-69
2023/04/18 15:14:42;;;;;;;8.15;4.95;;;;;;;;;;12983925;19;20111;-69
2023/04/18 15:19:00;;;;;;;;;;;;;;;;;;12984196;19;20019;-69
2023/04/18 15:23:18;;;;;;;13.70;7.25;;;;;;;;;;12983389;19;19918;-68
2023/04/18 15:27:36;;;;;;;4.85;3.13;;;;;;;;;;12982522;19;20604;-68
2023/04/18 15:31:54;;;;;;;9.15;4.35;;;;;;;;;;12982002;19;20367;-70
2023/04/18 15:36:11;;;;;;;6.28;2.78;;;;;;;;;;12981633;19;20011;-69
2023/04/18 15:40:31;;;;;;;6.82;2.97;;;;;;;;;;12982087;19;20014;-68
2023/04/18 15:44:49;;;;;;;10.45;3.97;;;;;;;;;;12982036;19;20011;-69
2023/04/18 15:49:07;;;;;;;3.80;2.80;;;;;;;;;;12980372;19;20006;-70
2023/04/18 15:53:24;;;;;;;5.03;2.67;;;;;;;;;;12981520;19;20022;-70
2023/04/18 15:57:42;;;;;;;;;;;;;;;;;;12981135;19;20018;-69
2023/04/18 16:02:00;;;;;;;5.70;3.17;;;;;;;;;;12993196;19;19918;-69
2023/04/18 16:06:21;;;;;;;5.28;2.88;;;;;;;;;;12994560;19;20014;-69
2023/04/18 16:10:38;;;;;;;5.15;3.30;;;;;;;;;;12993606;19;20359;-69
2023/04/18 16:14:56;;;;;;;7.65;3.20;;;;;;;;;;12994250;19;20018;-69
2023/04/18 16:19:15;;;;;;;3.97;3.10;;;;;;;;;;12992620;19;20030;-69
2023/04/18 16:23:34;;;;;;;5.35;3.20;;;;;;;;;;12991738;19;20014;-69
2023/04/18 16:27:52;;;;;;;5.60;3.55;;;;;;;;;;12992244;19;20011;-70
2023/04/18 16:32:10;;;;;;;6.18;4.47;;;;;;;;;;12991064;19;20512;-69
2023/04/18 16:36:27;;;;;;;4.90;2.70;;;;;;;;;;12991815;19;20781;-69
2023/04/18 16:40:45;;;;;;;;;;;;;;;;;;12993068;19;20029;-69
2023/04/18 16:45:03;;;;;;;9.88;3.45;;;;;;;;;;12990883;19;19918;-69
2023/04/18 16:49:22;;;;;;;5.78;3.17;;;;;;;;;;12992010;19;20404;-69
2023/04/18 16:53:40;;;;;;;5.30;3.00;;;;;;;;;;12991449;19;20033;-69
2023/04/18 16:57:58;;;;;;;4.03;2.65;;;;;;;;;;12991278;19;20018;-69
2023/04/18 17:02:15;;;;;;;6.38;2.67;;;;;;;;;;12991532;19;20019;-70
2023/04/18 17:06:34;;;;;;;5.53;3.42;;;;;;;;;;12991432;19;20455;-69
2023/04/18 17:10:52;;;;;;;4.63;3.45;;;;;;;;;;12989048;19;20133;-69
2023/04/18 17:15:10;;;;;;;8.07;3.50;;;;;;;;;;12990177;19;20017;-69
2023/04/18 17:19:28;;;;;;;;;;;;;;;;;;12990746;19;20350;-69
2023/04/18 17:23:46;;;;;;;9.02;3.95;;;;;;;;;;12989350;19;19923;-69
2023/04/18 17:28:04;;;;;;;5.65;3.85;;;;;;;;;;12987321;19;20025;-69
2023/04/18 17:32:22;;;;;;;7.03;3.00;;;;;;;;;;12989334;19;20525;-68
2023/04/18 17:36:40;;;;;;;6.72;3.08;;;;;;;;;;12988760;19;20006;-70
2023/04/18 17:41:03;;;;;;;6.95;3.38;;;;;;;;;;12989372;19;20376;-69
2023/04/18 17:45:21;;;;;;;5.97;3.25;;;;;;;;;;12988757;19;20360;-69
2023/04/18 17:49:38;;;;;;;4.25;3.15;;;;;;;;;;12989455;19;20465;-69
2023/04/18 17:53:56;;;;;;;5.40;3.58;;;;;;;;;;12986997;19;20018;-69
2023/04/18 17:58:15;;;;;;;6.38;3.58;;;;;;;;;;12988293;19;20486;-69
2023/04/18 18:02:33;;;;;;;7.75;3.53;;;;;;;;;;12988625;19;20003;-69
2023/04/18 18:06:56;;;;;;;15.10;9.07;;;;;;;;;;12986742;19;20007;-69
2023/04/18 18:11:13;;;;;;;7.15;4.43;;;;;;;;;;12984504;19;20354;-69
2023/04/18 18:15:31;;;;;;;9.43;6.10;;;;;;;;;;12987179;19;20086;-68
2023/04/18 18:19:49;;;;;;;7.57;5.15;;;;;;;;;;12986905;19;20018;-69
2023/04/18 18:24:08;;;;;;;9.25;5.00;;;;;;;;;;12985039;19;20017;-69
2023/04/18 18:28:26;;;;;;;8.02;4.78;;;;;;;;;;12986200;19;20018;-69
2023/04/18 18:32:44;;;;;;;;;;;;;;;;;;12986663;19;20029;-69
2023/04/18 18:37:01;;;;;;;6.43;3.90;;;;;;;;;;12984873;19;19926;-69
2023/04/18 18:41:21;;;;;;;11.57;6.97;;;;;;;;;;12985991;19;20010;-69
2023/04/18 18:45:39;;;;;;;8.65;4.22;;;;;;;;;;12986132;19;20010;-69
2023/04/18 18:49:56;;;;;;;4.80;3.45;;;;;;;;;;12986297;19;20100;-68
2023/04/18 18:54:15;;;;;;;5.85;4.13;;;;;;;;;;12985632;19;20114;-68
2023/04/18 18:58:32;;;;;;;8.00;4.13;;;;;;;;;;12983913;19;20022;-69
2023/04/18 19:02:50;;;;;;;13.65;8.02;;;;;;;;;;12985324;19;20011;-69
2023/04/18 19:07:09;;;;;;;14.52;8.55;;;;;;;;;;12984386;19;20011;-69
2023/04/18 19:11:27;;;;;;;10.23;4.55;;;;;;;;;;12983599;19;20019;-69
2023/04/18 19:15:45;;;;;;;12.43;6.30;;;;;;;;;;12984147;19;20469;-69
2023/04/18 19:20:03;;;;;;;7.07;4.07;;;;;;;;;;12983599;19;20026;-70
2023/04/18 19:24:22;;;;;;;8.00;4.70;;;;;;;;;;12983377;19;20034;-69
2023/04/18 19:28:40;;;;;;;8.00;4.53;;;;;;;;;;12982431;19;20019;-69
2023/04/18 19:32:57;;;;;;;;;;;;;;;;;;12982988;19;20014;-70
2023/04/18 19:37:15;;;;;;;7.57;4.97;;;;;;;;;;12983561;19;20208;-69
2023/04/18 19:41:33;;;;;;;8.02;5.32;;;;;;;;;;12983118;19;20010;-69
2023/04/18 19:45:51;;;;;;;9.60;5.55;;;;;;;;;;12983389;19;20014;-68
2023/04/18 19:50:11;;;;;;;11.68;7.10;;;;;;;;;;12981878;19;20596;-68
2023/04/18 19:54:32;;;;;;;9.02;5.28;;;;;;;;;;12982227;19;20010;-68
2023/04/18 19:58:49;;;;;;;8.80;5.30;;;;;;;;;;12981895;19;20710;-68
2023/04/18 20:03:07;;;;;;;8.48;4.95;;;;;;;;;;12980084;19;20042;-68
2023/04/18 20:07:25;;;;;;;9.68;5.25;;;;;;;;;;12980953;19;20014;-68
2023/04/18 20:11:43;;;;;;;13.13;5.95;;;;;;;;;;12980500;19;20015;-68
2023/04/18 20:16:02;;;;;;;10.20;5.53;;;;;;;;;;12980459;19;20013;-68
2023/04/18 20:20:20;;;;;;;9.80;5.30;;;;;;;;;;12980914;19;20019;-68
2023/04/18 20:24:38;;;;;;;12.75;5.22;;;;;;;;;;12980485;19;20314;-68
2023/04/18 20:28:55;;;;;;;11.18;5.93;;;;;;;;;;12979858;19;20026;-69
2023/04/18 20:33:13;;;;;;;10.35;5.90;;;;;;;;;;12980446;19;20015;-68
2023/04/18 20:37:35;;;;;;;8.18;5.65;;;;;;;;;;12981147;19;20002;-69
2023/04/18 20:41:56;;;;;;;11.93;8.18;;;;;;;;;;12980562;19;20027;-68
2023/04/18 20:46:14;;;;;;;11.18;6.55;;;;;;;;;;12982901;19;20529;-69
2023/04/18 20:50:32;;;;;;;11.35;6.28;;;;;;;;;;12991405;19;20121;-68
2023/04/18 20:54:50;;;;;;;10.90;6.75;;;;;;;;;;12992038;19;20015;-69
2023/04/18 20:59:08;;;;;;;12.80;6.10;;;;;;;;;;12990656;19;20038;-67
2023/04/18 21:03:26;;;;;;;10.60;6.25;;;;;;;;;;12991969;19;21148;-70
2023/04/18 21:07:44;;;;;;;9.07;6.13;;;;;;;;;;12991381;19;20029;-70
2023/04/18 21:12:04;;;;;;;16.10;6.60;;;;;;;;;;12990422;19;20023;-69
2023/04/18 21:16:23;;;;;;;10.48;6.53;;;;;;;;;;12990972;19;20010;-69
2023/04/18 21:20:40;;;;;;;;;;;;;;;;;;12991281;19;20504;-69
2023/04/18 21:24:58;;;;;;;8.70;5.72;;;;;;;;;;12990888;19;20338;-68
2023/04/18 21:29:15;;;;;;;7.85;5.47;;;;;;;;;;12988978;19;20018;-71
2023/04/18 21:33:33;;;;;;;8.48;5.63;;;;;;;;;;12988050;19;20022;-69
2023/04/18 21:37:51;;;;;;;7.25;5.95;;;;;;;;;;12989653;19;20015;-69
2023/04/18 21:42:09;;;;;;;20.05;5.05;;;;;;;;;;12988149;19;20010;-69
2023/04/18 21:46:27;;;;;;;10.77;5.57;;;;;;;;;;12989131;19;20018;-69
2023/04/18 21:50:44;;;;;;;11.68;5.30;;;;;;;;;;12988962;19;20017;-69
2023/04/18 21:55:03;;;;;;;11.15;6.50;;;;;;;;;;12988600;19;20014;-69
2023/04/18 21:59:21;;;;;;;12.23;7.78;;;;;;;;;;12987781;19;20018;-69
2023/04/18 22:03:39;;;;;;;16.65;8.98;;;;;;;;;;12989400;19;20010;-69
2023/04/18 22:07:57;;;;;;;;;;;;;;;;;;12989544;19;20014;-69
2023/04/18 22:12:15;;;;;;;9.13;5.93;;;;;;;;;;12986202;19;19922;-70
2023/04/18 22:16:33;;;;;;;;;;;;;;;;;;12989081;19;20052;-70
2023/04/18 22:20:52;;;;;;;11.23;7.40;;;;;;;;;;12987461;19;19922;-69
2023/04/18 22:25:12;;;;;;;11.88;7.47;;;;;;;;;;12986491;19;20465;-69
2023/04/18 22:29:30;;;;;;;11.68;7.15;;;;;;;;;;12986872;19;20031;-69
2023/04/18 22:33:48;;;;;;;11.45;6.50;;;;;;;;;;12986682;19;20007;-69
2023/04/18 22:38:06;;;;;;;12.70;6.80;;;;;;;;;;12985445;19;20019;-69
2023/04/18 22:42:24;;;;;;;10.95;7.32;;;;;;;;;;12986447;19;20326;-69
2023/04/18 22:46:42;;;;;;;13.77;8.23;;;;;;;;;;12986058;19;20010;-69
2023/04/18 22:51:00;;;;;;;13.15;7.57;;;;;;;;;;12985735;19;20469;-68
2023/04/18 22:55:19;;;;;;;19.55;11.02;;;;;;;;;;12986435;19;20473;-69
2023/04/18 22:59:36;;;;;;;21.60;12.82;;;;;;;;;;12986830;19;20006;-68
2023/04/18 23:03:55;;;;;;;22.65;12.23;;;;;;;;;;12986164;19;20019;-68
2023/04/18 23:08:13;;;;;;;;;;;;;;;;;;12984449;19;20014;-68
2023/04/18 23:12:30;;;;;;;13.40;8.80;;;;;;;;;;12985684;19;19918;-68
2023/04/18 23:16:48;;;;;;;19.67;8.48;;;;;;;;;;12985210;19;20034;-68
2023/04/18 23:21:06;;;;;;;13.57;8.40;;;;;;;;;;12983949;19;20623;-68
2023/04/18 23:25:23;;;;;;;12.85;8.05;;;;;;;;;;12984034;19;20014;-68
2023/04/18 23:29:41;;;;;;;;;;;;;;;;;;12984283;19;20015;-68
2023/04/18 23:33:59;;;;;;;15.70;8.37;;;;;;;;;;12984014;19;20262;-68
2023/04/18 23:38:16;;;;;;;14.68;8.75;;;;;;;;;;12983886;19;20232;-68
2023/04/18 23:42:34;;;;;;;11.48;7.97;;;;;;;;;;12984535;19;20015;-67
2023/04/18 23:46:52;;;;;;;;;;;;;;;;;;12983820;19;20010;-67
2023/04/18 23:51:10;;;;;;;14.75;7.97;;;;;;;;;;12981431;19;19918;-67
2023/04/18 23:55:27;;;;;;;13.38;8.30;;;;;;;;;;12982624;19;20375;-67
2023/04/18 23:59:45;;;;;;;14.05;8.10;;;;;;;;;;12982655;19;20023;-67
